createdAt,value
2018-03-14T00:01:16.775Z,89.79
2018-03-14T00:03:45.870Z,90.00
2018-03-14T00:06:14.956Z,90.02
2018-03-14T00:08:43.329Z,89.57
2018-03-14T00:11:11.661Z,89.48
2018-03-14T00:13:40.112Z,89.67
2018-03-14T00:16:08.505Z,89.68
2018-03-14T00:18:36.829Z,89.23
2018-03-14T00:21:05.156Z,89.15
2018-03-14T00:23:33.524Z,89.17
2018-03-14T00:26:02.303Z,89.22
2018-03-14T00:28:30.681Z,89.09
2018-03-14T00:31:00.200Z,89.33
2018-03-14T00:33:28.548Z,89.53
2018-03-14T00:35:57.109Z,89.41
2018-03-14T00:38:25.760Z,89.17
2018-03-14T00:40:54.107Z,89.18
2018-03-14T00:43:23.305Z,88.87
2018-03-14T00:45:51.804Z,88.96
2018-03-14T00:48:20.207Z,88.64
2018-03-14T00:50:49.325Z,88.58
2018-03-14T00:53:18.268Z,88.56
2018-03-14T00:55:46.634Z,88.50
2018-03-14T00:58:15.751Z,88.15
2018-03-14T01:00:44.085Z,88.42
2018-03-14T01:03:13.912Z,88.76
2018-03-14T01:05:43.025Z,88.21
2018-03-14T01:08:12.112Z,88.74
2018-03-14T01:10:41.773Z,88.82
2018-03-14T01:13:10.137Z,89.37
2018-03-14T01:15:38.461Z,89.21
2018-03-14T01:18:06.788Z,89.15
2018-03-14T01:20:36.587Z,88.77
2018-03-14T01:23:04.904Z,88.70
2018-03-14T01:25:33.232Z,88.92
2018-03-14T01:28:01.611Z,88.88
2018-03-14T01:30:30.705Z,88.99
2018-03-14T01:32:59.801Z,89.08
2018-03-14T01:35:28.157Z,88.89
2018-03-14T01:37:56.484Z,88.62
2018-03-14T01:40:24.804Z,88.43
2018-03-14T01:42:53.602Z,88.97
2018-03-14T01:45:21.932Z,88.98
2018-03-14T01:47:50.261Z,88.82
2018-03-14T01:50:19.871Z,88.95
2018-03-14T01:52:48.234Z,89.75
2018-03-14T01:55:16.588Z,90.00
2018-03-14T01:57:45.821Z,90.45
2018-03-14T02:00:14.148Z,91.05
2018-03-14T02:02:43.053Z,91.16
2018-03-14T02:05:11.372Z,91.08
2018-03-14T02:07:39.689Z,91.30
2018-03-14T02:10:08.053Z,91.56
2018-03-14T02:12:36.382Z,91.71
2018-03-14T02:15:05.134Z,91.93
2018-03-14T02:17:33.549Z,91.84
2018-03-14T02:20:01.876Z,92.07
2018-03-14T02:22:30.756Z,92.20
2018-03-14T02:24:59.136Z,92.34
2018-03-14T02:27:27.519Z,92.07
2018-03-14T02:29:55.852Z,91.87
2018-03-14T02:32:24.241Z,91.90
2018-03-14T02:34:52.623Z,92.03
2018-03-14T02:37:21.146Z,92.16
2018-03-14T02:39:49.503Z,91.33
2018-03-14T02:42:18.314Z,91.14
2018-03-14T02:44:46.776Z,91.14
2018-03-14T02:47:15.120Z,91.34
2018-03-14T02:49:43.429Z,90.47
2018-03-14T02:52:12.414Z,90.49
2018-03-14T02:54:40.730Z,90.52
2018-03-14T02:57:09.088Z,91.17
2018-03-14T02:59:37.972Z,90.83
2018-03-14T03:02:06.289Z,90.84
2018-03-14T03:04:34.828Z,89.71
2018-03-14T03:07:03.187Z,90.16
2018-03-14T03:09:31.492Z,89.40
2018-03-14T03:12:00.379Z,88.73
2018-03-14T03:14:29.256Z,87.86
2018-03-14T03:16:57.563Z,86.90
2018-03-14T03:19:25.869Z,86.80
2018-03-14T03:21:54.216Z,86.93
2018-03-14T03:24:22.793Z,86.70
2018-03-14T03:26:51.147Z,86.88
2018-03-14T03:29:19.461Z,87.09
2018-03-14T03:31:48.540Z,87.25
2018-03-14T03:34:18.684Z,87.22
2018-03-14T03:36:47.333Z,87.78
2018-03-14T03:39:15.650Z,87.60
2018-03-14T03:41:44.468Z,87.96
2018-03-14T03:44:12.782Z,88.09
2018-03-14T03:46:41.168Z,87.94
2018-03-14T03:49:09.677Z,88.24
2018-03-14T03:51:38.053Z,88.53
2018-03-14T03:54:06.368Z,88.30
2018-03-14T03:56:34.762Z,88.40
2018-03-14T03:59:03.163Z,88.43
2018-03-14T04:01:31.675Z,88.31
2018-03-14T04:04:00.020Z,88.03
2018-03-14T04:06:28.329Z,88.00
2018-03-14T04:08:56.635Z,88.06
2018-03-14T04:11:24.996Z,87.73
2018-03-14T04:13:54.031Z,88.01
2018-03-14T04:16:22.892Z,88.10
2018-03-14T04:18:51.604Z,87.87
2018-03-14T04:21:20.197Z,87.76
2018-03-14T04:23:50.044Z,87.62
2018-03-14T04:26:19.314Z,88.06
2018-03-14T04:28:47.695Z,88.19
2018-03-14T04:31:16.137Z,88.24
2018-03-14T04:33:44.440Z,88.16
2018-03-14T04:36:12.984Z,88.57
2018-03-14T04:38:41.349Z,88.58
2018-03-14T04:41:09.659Z,88.46
2018-03-14T04:43:37.967Z,88.28
2018-03-14T04:46:06.371Z,88.40
2018-03-14T04:48:34.733Z,87.75
2018-03-14T04:51:03.141Z,88.23
2018-03-14T04:53:31.504Z,88.76
2018-03-14T04:56:01.108Z,88.40
2018-03-14T04:58:29.428Z,88.03
2018-03-14T05:00:57.768Z,87.80
2018-03-14T05:03:26.084Z,87.99
2018-03-14T05:05:54.403Z,88.00
2018-03-14T05:08:22.763Z,87.68
2018-03-14T05:10:51.458Z,87.61
2018-03-14T05:13:20.200Z,87.83
2018-03-14T05:15:48.774Z,87.46
2018-03-14T05:18:17.084Z,87.39
2018-03-14T05:20:45.384Z,87.87
2018-03-14T05:23:13.736Z,88.19
2018-03-14T05:25:42.048Z,88.92
2018-03-14T05:28:10.360Z,88.79
2018-03-14T05:30:38.803Z,89.11
2018-03-14T05:33:08.580Z,89.53
2018-03-14T05:35:37.521Z,89.42
2018-03-14T05:38:06.580Z,89.47
2018-03-14T05:40:35.040Z,89.43
2018-03-14T05:43:03.319Z,89.31
2018-03-14T05:45:32.168Z,89.07
2018-03-14T05:48:01.345Z,89.74
2018-03-14T05:50:29.654Z,88.92
2018-03-14T05:52:57.956Z,88.87
2018-03-14T05:55:26.304Z,88.41
2018-03-14T05:57:54.608Z,89.11
2018-03-14T06:00:22.928Z,88.42
2018-03-14T06:02:51.366Z,89.23
2018-03-14T06:05:19.737Z,88.76
2018-03-14T06:07:48.016Z,88.77
2018-03-14T06:10:20.184Z,88.58
2018-03-14T06:12:48.488Z,88.55
2018-03-14T06:15:16.800Z,88.06
2018-03-14T06:17:45.144Z,88.01
2018-03-14T06:20:13.457Z,88.11
2018-03-14T06:22:42.820Z,87.27
2018-03-14T06:25:11.960Z,88.17
2018-03-14T06:27:40.640Z,87.79
2018-03-14T06:30:09.524Z,87.84
2018-03-14T06:32:37.869Z,87.93
2018-03-14T06:35:06.792Z,87.43
2018-03-14T06:37:35.100Z,86.33
2018-03-14T06:40:04.064Z,85.72
2018-03-14T06:42:32.367Z,85.04
2018-03-14T06:45:00.676Z,84.49
2018-03-14T06:47:29.726Z,84.48
2018-03-14T06:49:58.037Z,84.02
2018-03-14T06:52:26.340Z,83.25
2018-03-14T06:54:54.677Z,81.80
2018-03-14T06:57:22.985Z,82.32
2018-03-14T07:00:09.129Z,81.34
2018-03-14T07:02:49.793Z,80.91
2018-03-14T07:05:36.492Z,79.98
2018-03-14T07:08:04.808Z,79.88
2018-03-14T07:10:33.144Z,81.84
2018-03-14T07:13:01.455Z,81.92
2018-03-14T07:15:29.840Z,81.13
2018-03-14T07:17:58.191Z,82.72
2018-03-14T07:20:26.546Z,80.11
2018-03-14T07:22:54.861Z,79.45
2018-03-14T07:25:24.027Z,78.63
2018-03-14T07:27:52.339Z,78.23
2018-03-14T07:30:20.652Z,78.19
2018-03-14T07:32:48.994Z,77.89
2018-03-14T07:35:18.089Z,77.11
2018-03-14T07:37:47.680Z,77.36
2018-03-14T07:40:16.189Z,76.24
2018-03-14T07:42:45.048Z,74.89
2018-03-14T07:45:13.385Z,75.15
2018-03-14T07:47:41.749Z,75.01
2018-03-14T07:50:10.052Z,73.36
2018-03-14T07:52:38.364Z,73.86
2018-03-14T07:55:06.731Z,73.15
2018-03-14T07:57:35.042Z,72.21
2018-03-14T08:00:03.352Z,72.18
2018-03-14T08:02:31.709Z,73.10
2018-03-14T08:05:00.017Z,71.88
2018-03-14T08:07:28.317Z,72.25
2018-03-14T08:09:56.917Z,72.82
2018-03-14T08:12:25.377Z,72.17
2018-03-14T08:14:53.689Z,71.23
2018-03-14T08:17:21.998Z,69.72
2018-03-14T08:19:50.344Z,71.50
2018-03-14T08:22:19.702Z,72.88
2018-03-14T08:24:48.016Z,72.18
2018-03-14T08:27:16.360Z,73.55
2018-03-14T08:29:44.663Z,73.11
2018-03-14T08:32:13.007Z,70.03
2018-03-14T08:34:41.363Z,66.99
2018-03-14T08:37:10.502Z,67.68
2018-03-14T08:39:39.632Z,65.33
2018-03-14T08:42:07.937Z,65.79
2018-03-14T08:44:36.830Z,60.71
2018-03-14T08:47:05.193Z,59.93
2018-03-14T08:49:33.500Z,57.55
2018-03-14T08:52:02.792Z,50.82
2018-03-14T08:54:31.154Z,45.30
2018-03-14T08:57:00.224Z,51.54
2018-03-14T08:59:29.356Z,53.20
2018-03-14T09:01:58.449Z,56.08
2018-03-14T09:04:27.523Z,56.01
2018-03-14T09:06:55.820Z,58.28
2018-03-14T09:09:24.172Z,57.24
2018-03-14T09:11:52.485Z,58.53
2018-03-14T09:14:20.808Z,59.16
2018-03-14T09:16:50.214Z,56.69
2018-03-14T09:19:18.515Z,48.41
2018-03-14T09:21:46.829Z,55.31
2018-03-14T09:24:15.168Z,56.26
2018-03-14T09:26:43.485Z,55.43
2018-03-14T09:29:12.417Z,54.86
2018-03-14T09:31:41.498Z,50.68
2018-03-14T09:34:09.815Z,44.90
2018-03-14T09:36:38.127Z,37.20
2018-03-14T09:39:06.648Z,33.80
2018-03-14T09:41:35.763Z,32.09
2018-03-14T09:44:04.044Z,44.30
2018-03-14T09:46:32.960Z,44.44
2018-03-14T09:49:01.288Z,41.94
2018-03-14T09:51:30.239Z,42.86
2018-03-14T09:53:59.132Z,37.04
2018-03-14T09:56:27.452Z,35.87
2018-03-14T09:58:56.448Z,41.71
2018-03-14T10:01:24.928Z,44.26
2018-03-14T10:03:53.943Z,40.88
2018-03-14T10:06:22.452Z,38.13
2018-03-14T10:08:50.779Z,39.76
2018-03-14T10:11:19.873Z,29.60
2018-03-14T10:13:48.672Z,32.12
2018-03-14T10:16:17.766Z,44.62
2018-03-14T10:18:46.624Z,48.03
2018-03-14T10:21:15.233Z,44.61
2018-03-14T10:23:43.992Z,36.89
2018-03-14T10:26:12.615Z,35.58
2018-03-14T10:28:41.112Z,31.33
2018-03-14T10:31:09.542Z,23.24
2018-03-14T10:33:37.905Z,19.09
2018-03-14T10:36:06.409Z,22.13
2018-03-14T10:38:36.472Z,17.93
2018-03-14T10:41:04.806Z,15.06
2018-03-14T10:43:33.102Z,18.30
2018-03-14T10:46:02.089Z,19.72
2018-03-14T10:48:30.965Z,20.33
2018-03-14T10:50:59.683Z,14.77
2018-03-14T10:53:28.109Z,19.06
2018-03-14T10:55:56.451Z,20.32
2018-03-14T10:58:25.156Z,22.04
2018-03-14T11:01:12.132Z,23.47
2018-03-14T11:03:45.324Z,25.79
2018-03-14T11:06:13.693Z,28.28
2018-03-14T11:08:42.204Z,28.16
2018-03-14T11:11:11.067Z,34.86
2018-03-14T11:13:39.452Z,27.08
2018-03-14T11:16:07.760Z,20.60
2018-03-14T11:18:36.073Z,25.29
2018-03-14T11:21:04.968Z,24.59
2018-03-14T11:23:33.496Z,21.32
2018-03-14T11:26:02.365Z,14.45
2018-03-14T11:28:30.728Z,13.89
2018-03-14T11:30:59.996Z,19.42
2018-03-14T11:33:28.308Z,24.41
2018-03-14T11:35:56.685Z,27.13
2018-03-14T11:38:26.807Z,24.43
2018-03-14T11:40:55.117Z,20.70
2018-03-14T11:43:23.579Z,17.45
2018-03-14T11:45:52.093Z,17.10
2018-03-14T11:48:20.437Z,18.01
2018-03-14T11:50:49.004Z,17.30
2018-03-14T11:53:17.360Z,14.98
2018-03-14T11:55:45.680Z,16.59
2018-03-14T11:58:14.280Z,17.51
2018-03-14T12:00:42.637Z,17.66
2018-03-14T12:03:11.527Z,19.83
2018-03-14T12:05:39.841Z,17.73
2018-03-14T12:08:08.676Z,16.05
2018-03-14T12:10:37.047Z,15.72
2018-03-14T12:13:05.356Z,18.13
2018-03-14T12:15:34.451Z,18.13
2018-03-14T12:18:02.986Z,19.19
2018-03-14T12:20:31.299Z,19.10
2018-03-14T12:23:00.740Z,20.16
2018-03-14T12:25:29.119Z,20.25
2018-03-14T12:27:57.432Z,19.01
2018-03-14T12:30:26.254Z,19.93
2018-03-14T12:32:54.616Z,19.31
2018-03-14T12:35:23.009Z,18.71
2018-03-14T12:37:51.312Z,20.71
2018-03-14T12:40:20.212Z,19.14
2018-03-14T12:42:48.537Z,22.41
2018-03-14T12:45:17.273Z,20.69
2018-03-14T12:47:45.877Z,19.10
2018-03-14T12:50:14.228Z,23.16
2018-03-14T12:52:42.693Z,21.98
2018-03-14T12:55:11.000Z,23.46
2018-03-14T12:57:39.930Z,21.55
2018-03-14T13:00:08.348Z,27.45
2018-03-14T13:02:37.292Z,34.20
2018-03-14T13:05:05.601Z,39.05
2018-03-14T13:07:33.904Z,38.93
2018-03-14T13:10:02.852Z,40.11
2018-03-14T13:12:31.600Z,40.82
2018-03-14T13:14:59.923Z,41.75
2018-03-14T13:17:28.684Z,42.92
2018-03-14T13:19:57.235Z,42.37
2018-03-14T13:22:25.557Z,42.88
2018-03-14T13:24:53.922Z,41.81
2018-03-14T13:27:22.700Z,42.24
2018-03-14T13:29:51.017Z,41.75
2018-03-14T13:32:19.735Z,41.00
2018-03-14T13:34:48.552Z,39.27
2018-03-14T13:37:17.162Z,35.01
2018-03-14T13:39:45.939Z,28.58
2018-03-14T13:42:14.256Z,25.75
2018-03-14T13:44:42.980Z,24.66
2018-03-14T13:47:11.288Z,26.47
2018-03-14T13:49:39.596Z,32.10
2018-03-14T13:52:08.656Z,34.64
2018-03-14T13:54:36.985Z,36.00
2018-03-14T13:57:05.304Z,34.50
2018-03-14T13:59:33.681Z,34.68
2018-03-14T14:02:02.007Z,34.70
2018-03-14T14:04:30.724Z,35.78
2018-03-14T14:06:59.380Z,39.89
2018-03-14T14:09:27.760Z,39.78
2018-03-14T14:11:56.072Z,41.78
2018-03-14T14:14:24.585Z,40.92
2018-03-14T14:16:52.928Z,41.94
2018-03-14T14:19:21.244Z,40.52
2018-03-14T14:21:49.616Z,40.47
2018-03-14T14:24:17.929Z,41.53
2018-03-14T14:26:46.241Z,40.47
2018-03-14T14:29:14.585Z,42.06
2018-03-14T14:31:42.891Z,43.32
2018-03-14T14:34:11.864Z,43.22
2018-03-14T14:36:40.843Z,44.19
2018-03-14T14:39:09.560Z,44.42
2018-03-14T14:41:38.970Z,45.23
2018-03-14T14:44:08.083Z,45.98
2018-03-14T14:46:36.397Z,45.18
2018-03-14T14:49:04.718Z,44.61
2018-03-14T14:51:33.888Z,44.82
2018-03-14T14:54:02.217Z,46.46
2018-03-14T14:56:30.536Z,45.32
2018-03-14T14:58:58.900Z,46.51
2018-03-14T15:01:27.220Z,45.78
2018-03-14T15:03:55.540Z,44.93
2018-03-14T15:06:24.418Z,45.53
2018-03-14T15:08:52.730Z,46.06
2018-03-14T15:11:21.096Z,46.16
2018-03-14T15:13:49.400Z,46.16
2018-03-14T15:16:18.292Z,45.89
2018-03-14T15:18:46.625Z,45.44
2018-03-14T15:21:15.219Z,46.22
2018-03-14T15:23:43.532Z,46.69
2018-03-14T15:26:12.492Z,46.32
2018-03-14T15:28:43.536Z,45.94
2018-03-14T15:31:12.050Z,47.04
2018-03-14T15:33:41.160Z,46.75
2018-03-14T15:36:09.481Z,46.71
2018-03-14T15:38:37.800Z,46.95
2018-03-14T15:41:06.816Z,46.85
2018-03-14T15:43:35.140Z,46.20
2018-03-14T15:46:03.661Z,46.96
2018-03-14T15:48:32.448Z,47.74
2018-03-14T15:51:00.945Z,48.44
2018-03-14T15:53:29.256Z,48.31
2018-03-14T15:55:57.598Z,48.45
2018-03-14T15:58:26.680Z,48.89
2018-03-14T16:00:56.280Z,49.42
2018-03-14T16:03:24.600Z,48.77
2018-03-14T16:05:52.931Z,48.58
2018-03-14T16:08:21.285Z,48.68
2018-03-14T16:10:49.604Z,48.79
2018-03-14T16:13:17.974Z,49.33
2018-03-14T16:15:46.284Z,49.58
2018-03-14T16:18:15.361Z,49.94
2018-03-14T16:20:44.717Z,50.03
2018-03-14T16:23:13.385Z,49.77
2018-03-14T16:25:42.588Z,50.28
2018-03-14T16:28:10.996Z,50.39
2018-03-14T16:30:39.344Z,50.89
2018-03-14T16:33:09.091Z,50.87
2018-03-14T16:35:37.682Z,51.06
2018-03-14T16:38:07.095Z,51.87
2018-03-14T16:40:36.280Z,52.34
2018-03-14T16:43:04.585Z,52.41
2018-03-14T16:45:33.464Z,52.06
2018-03-14T16:48:02.984Z,52.51
2018-03-14T16:50:31.291Z,52.76
2018-03-14T16:52:59.649Z,52.83
2018-03-14T16:55:28.725Z,53.48
2018-03-14T16:57:58.308Z,53.07
2018-03-14T17:13:14.692Z,54.69
2018-03-14T17:15:43.069Z,55.00
2018-03-14T17:18:11.353Z,55.72
2018-03-14T17:20:39.770Z,56.24
2018-03-14T17:23:08.336Z,56.62
2018-03-14T17:25:37.744Z,56.82
2018-03-14T17:28:06.052Z,57.83
2018-03-14T17:30:34.590Z,58.39
2018-03-14T17:33:02.948Z,59.24
2018-03-14T17:35:31.824Z,59.38
2018-03-14T17:38:01.164Z,59.79
2018-03-14T17:40:29.545Z,60.54
2018-03-14T17:42:57.856Z,59.69
2018-03-14T17:45:26.452Z,60.12
2018-03-14T17:47:55.517Z,61.53
2018-03-14T17:50:23.819Z,62.85
2018-03-14T17:52:52.494Z,63.99
2018-03-14T17:55:21.478Z,64.06
2018-03-14T17:57:49.756Z,65.00
2018-03-14T18:00:18.060Z,63.86
2018-03-14T18:02:46.412Z,63.94
2018-03-14T18:05:17.045Z,64.48
2018-03-14T18:07:45.393Z,63.16
2018-03-14T18:10:13.796Z,62.89
2018-03-14T18:12:42.104Z,63.46
2018-03-14T18:15:11.853Z,64.30
2018-03-14T18:17:40.848Z,64.39
2018-03-14T18:20:09.172Z,65.22
2018-03-14T18:22:37.485Z,66.20
2018-03-14T18:25:06.544Z,66.16
2018-03-14T18:27:34.854Z,66.26
2018-03-14T18:30:03.662Z,66.48
2018-03-14T18:32:32.772Z,66.52
2018-03-14T18:35:01.144Z,66.92
2018-03-14T18:37:30.246Z,67.82
2018-03-14T18:39:59.322Z,68.85
2018-03-14T18:42:27.695Z,68.60
2018-03-14T18:44:56.088Z,67.88
2018-03-14T18:47:24.650Z,68.45
2018-03-14T18:49:53.773Z,68.63
2018-03-14T18:52:22.085Z,68.66
2018-03-14T18:54:50.384Z,68.48
2018-03-14T18:57:18.748Z,69.11
2018-03-14T18:59:47.060Z,70.01
2018-03-14T19:02:16.289Z,70.39
2018-03-14T19:04:45.499Z,69.83
2018-03-14T19:07:13.807Z,69.42
2018-03-14T19:09:42.113Z,69.50
2018-03-14T19:12:10.468Z,69.79
2018-03-14T19:14:39.404Z,70.17
2018-03-14T19:17:08.944Z,70.69
2018-03-14T19:19:38.267Z,70.16
2018-03-14T19:22:06.689Z,70.22
2018-03-14T19:24:35.146Z,70.06
2018-03-14T19:27:03.499Z,69.97
2018-03-14T19:29:31.861Z,70.94
2018-03-14T19:32:00.172Z,70.14
2018-03-14T19:34:29.008Z,70.71
2018-03-14T19:36:58.024Z,71.48
2018-03-14T19:39:27.282Z,71.81
2018-03-14T19:41:57.224Z,72.45
2018-03-14T19:44:26.959Z,72.89
2018-03-14T19:46:56.078Z,72.79
2018-03-14T19:49:25.953Z,72.64
2018-03-14T19:51:55.860Z,72.55
2018-03-14T19:54:24.557Z,72.93
2018-03-14T19:56:53.888Z,72.91
2018-03-14T19:59:23.936Z,73.21
2018-03-14T20:01:54.800Z,73.45
2018-03-14T20:04:23.692Z,73.65
2018-03-14T20:06:53.687Z,74.61
2018-03-14T20:09:22.144Z,74.91
2018-03-14T20:11:50.582Z,75.12
2018-03-14T20:14:19.726Z,75.18
2018-03-14T20:16:49.856Z,75.42
2018-03-14T20:19:18.236Z,75.83
2018-03-14T20:21:47.603Z,76.57
2018-03-14T20:24:16.445Z,76.00
2018-03-14T20:26:45.541Z,76.48
2018-03-14T20:29:14.890Z,76.19
2018-03-14T20:31:43.969Z,76.64
2018-03-14T20:34:16.080Z,75.89
2018-03-14T20:36:48.332Z,75.09
2018-03-14T20:39:16.801Z,74.53
2018-03-14T20:41:45.221Z,74.79
2018-03-14T20:44:13.679Z,74.11
2018-03-14T20:46:42.497Z,74.07
2018-03-14T20:49:11.593Z,73.80
2018-03-14T20:51:39.937Z,73.75
2018-03-14T20:54:08.472Z,73.81
2018-03-14T20:56:37.132Z,74.43
2018-03-14T20:59:05.569Z,74.22
2018-03-14T21:01:33.867Z,73.83
2018-03-14T21:04:02.627Z,73.50
2018-03-14T21:06:31.087Z,73.91
2018-03-14T21:09:00.764Z,74.32
2018-03-14T21:11:30.787Z,74.24
2018-03-14T21:13:59.564Z,74.95
2018-03-14T21:16:27.920Z,74.80
2018-03-14T21:18:56.304Z,74.77
2018-03-14T21:21:24.754Z,75.22
2018-03-14T21:23:53.247Z,74.85
2018-03-14T21:26:21.608Z,75.08
2018-03-14T21:28:49.936Z,75.20
2018-03-14T21:31:18.944Z,75.78
2018-03-14T21:33:47.568Z,76.01
2018-03-14T21:36:15.891Z,75.83
2018-03-14T21:38:44.212Z,75.39
2018-03-14T21:41:14.417Z,75.30
2018-03-14T21:43:42.728Z,75.78
2018-03-14T21:46:11.700Z,76.04
2018-03-14T21:48:40.772Z,75.76
2018-03-14T21:51:09.351Z,75.85
2018-03-14T21:53:38.094Z,75.81
2018-03-14T21:56:06.440Z,75.60
2018-03-14T21:58:35.604Z,75.17
2018-03-14T22:01:04.123Z,75.49
2018-03-14T22:03:32.440Z,75.25
2018-03-14T22:06:00.789Z,75.36
2018-03-14T22:08:29.229Z,75.37
2018-03-14T22:10:57.581Z,76.14
2018-03-14T22:13:26.228Z,76.41
2018-03-14T22:15:54.532Z,76.83
2018-03-14T22:18:23.530Z,75.73
2018-03-14T22:20:52.576Z,75.20
2018-03-14T22:23:20.880Z,75.44
2018-03-14T22:25:49.237Z,75.92
2018-03-14T22:28:17.980Z,75.75
2018-03-14T22:30:46.292Z,75.83
2018-03-14T22:33:14.795Z,75.56
2018-03-14T22:35:43.101Z,74.38
2018-03-14T22:38:11.476Z,74.33
2018-03-14T22:40:40.424Z,74.57
2018-03-14T22:43:08.744Z,74.79
2018-03-14T22:45:37.080Z,74.77
2018-03-14T22:48:05.379Z,74.93
2018-03-14T22:50:33.721Z,75.00
2018-03-14T22:53:02.036Z,74.46
2018-03-14T22:55:31.056Z,74.25
2018-03-14T22:57:59.368Z,74.74
2018-03-14T23:00:27.684Z,75.26
2018-03-14T23:02:56.025Z,75.40
2018-03-14T23:05:24.329Z,75.59
2018-03-14T23:07:53.887Z,75.34
2018-03-14T23:10:22.402Z,75.54
2018-03-14T23:12:51.444Z,75.50
2018-03-14T23:15:20.564Z,75.74
2018-03-14T23:17:49.612Z,76.56
2018-03-14T23:20:18.080Z,76.89
2018-03-14T23:22:47.150Z,76.70
2018-03-14T23:25:15.456Z,76.98
2018-03-14T23:27:44.572Z,77.47
2018-03-14T23:30:13.425Z,78.15
2018-03-14T23:32:41.773Z,78.29
2018-03-14T23:35:10.093Z,78.51
2018-03-14T23:37:38.469Z,78.59
2018-03-14T23:40:06.785Z,78.15
2018-03-14T23:42:35.087Z,78.97
2018-03-14T23:45:03.471Z,78.77
2018-03-14T23:47:32.201Z,79.05
2018-03-14T23:50:01.323Z,79.41
2018-03-14T23:52:29.632Z,80.22
2018-03-14T23:54:57.942Z,79.88
2018-03-14T23:57:26.279Z,80.26
2018-03-14T23:59:54.593Z,80.68
